createdAt,value
2023-02-14T00:01:19.411Z,57.74
2023-02-14T00:03:47.728Z,56.76
2023-02-14T00:06:16.180Z,56.31
2023-02-14T00:08:44.836Z,57.45
2023-02-14T00:11:13.713Z,56.80
2023-02-14T00:14:00.888Z,56.17
2023-02-14T00:16:29.463Z,56.71
2023-02-14T00:19:06.517Z,57.26
2023-02-14T00:21:35.971Z,58.45
2023-02-14T00:24:03.614Z,57.54
2023-02-14T00:26:30.541Z,58.19
2023-02-14T00:28:58.502Z,57.94
2023-02-14T00:31:25.891Z,56.94
2023-02-14T00:33:54.675Z,56.08
2023-02-14T00:36:22.533Z,56.48
2023-02-14T00:38:49.289Z,56.79
2023-02-14T00:41:19.695Z,56.41
2023-02-14T00:43:52.298Z,56.84
2023-02-14T00:46:20.361Z,57.04
2023-02-14T00:48:49.568Z,57.11
2023-02-14T00:51:18.788Z,56.63
2023-02-14T00:53:49.733Z,56.84
2023-02-14T00:56:16.745Z,56.76
2023-02-14T00:58:44.849Z,57.13
2023-02-14T01:01:14.525Z,56.75
2023-02-14T01:03:41.500Z,56.89
2023-02-14T01:06:09.657Z,57.59
2023-02-14T01:08:38.258Z,58.28
2023-02-14T01:11:12.821Z,57.35
2023-02-14T01:13:39.881Z,56.61
2023-02-14T01:16:13.301Z,56.64
2023-02-14T01:18:40.257Z,55.99
2023-02-14T01:21:15.790Z,55.00
2023-02-14T01:23:44.556Z,56.68
2023-02-14T01:26:12.017Z,58.16
2023-02-14T01:28:38.673Z,58.51
2023-02-14T01:31:13.001Z,57.14
2023-02-14T01:33:42.173Z,56.71
2023-02-14T01:36:17.965Z,55.48
2023-02-14T01:38:45.211Z,55.11
2023-02-14T01:41:12.298Z,55.60
2023-02-14T01:44:02.489Z,57.11
2023-02-14T01:46:33.636Z,56.65
2023-02-14T01:49:04.463Z,56.37
2023-02-14T01:51:34.891Z,55.98
2023-02-14T01:54:03.698Z,55.90
2023-02-14T01:56:43.536Z,56.56
2023-02-14T01:59:12.512Z,56.17
2023-02-14T02:01:40.726Z,56.66
2023-02-14T02:04:10.466Z,57.34
2023-02-14T02:06:44.405Z,57.20
2023-02-14T02:09:14.648Z,56.79
2023-02-14T02:11:42.081Z,56.18
2023-02-14T02:14:14.985Z,55.87
2023-02-14T02:17:08.278Z,55.40
2023-02-14T02:19:54.261Z,55.13
2023-02-14T02:22:41.671Z,56.05
2023-02-14T02:25:28.321Z,56.46
2023-02-14T02:27:55.053Z,56.55
2023-02-14T02:30:44.537Z,56.20
2023-02-14T02:33:30.184Z,57.23
2023-02-14T02:35:57.709Z,56.41
2023-02-14T02:38:54.564Z,56.01
2023-02-14T02:42:00.758Z,56.35
2023-02-14T02:44:40.534Z,56.62
2023-02-14T02:47:19.637Z,56.30
2023-02-14T02:50:08.270Z,56.12
2023-02-14T02:53:05.536Z,56.17
2023-02-14T02:55:57.702Z,56.13
2023-02-14T02:58:26.218Z,56.37
2023-02-14T03:00:55.344Z,56.17
2023-02-14T03:03:44.481Z,55.70
2023-02-14T03:06:11.229Z,55.01
2023-02-14T03:08:38.138Z,56.30
2023-02-14T03:11:05.976Z,57.99
2023-02-14T03:13:36.558Z,59.58
2023-02-14T03:16:06.285Z,59.27
2023-02-14T03:18:42.551Z,58.80
2023-02-14T03:21:25.302Z,57.45
2023-02-14T03:24:01.601Z,57.56
2023-02-14T03:26:39.502Z,57.65
2023-02-14T03:29:10.095Z,57.28
2023-02-14T03:31:47.619Z,57.42
2023-02-14T03:34:21.888Z,57.95
2023-02-14T03:36:59.236Z,56.96
2023-02-14T03:39:38.669Z,56.19
2023-02-14T03:42:09.383Z,56.76
2023-02-14T03:44:38.240Z,57.11
2023-02-14T03:47:09.263Z,57.67
2023-02-14T03:49:38.655Z,56.89
2023-02-14T03:52:09.909Z,57.35
2023-02-14T03:54:37.916Z,57.51
2023-02-14T03:57:12.679Z,57.81
2023-02-14T03:59:40.666Z,57.81
2023-02-14T04:02:10.372Z,57.83
2023-02-14T04:04:43.553Z,57.94
2023-02-14T04:07:12.219Z,57.75
2023-02-14T04:09:38.831Z,57.14
2023-02-14T04:12:06.289Z,58.03
2023-02-14T04:14:34.040Z,57.68
2023-02-14T04:17:19.476Z,57.46
2023-02-14T04:19:48.489Z,58.25
2023-02-14T04:22:15.801Z,58.51
2023-02-14T04:24:43.984Z,58.46
2023-02-14T04:27:11.427Z,57.84
2023-02-14T04:29:41.187Z,57.20
2023-02-14T04:32:15.660Z,57.94
2023-02-14T04:34:42.476Z,57.82
2023-02-14T04:37:11.074Z,57.52
2023-02-14T04:39:38.261Z,56.46
2023-02-14T04:42:05.761Z,57.34
2023-02-14T04:44:34.037Z,59.29
2023-02-14T04:47:01.227Z,59.73
2023-02-14T04:49:29.703Z,59.14
2023-02-14T04:51:57.016Z,59.44
2023-02-14T04:54:25.586Z,59.99
2023-02-14T04:56:53.033Z,59.42
2023-02-14T04:59:22.002Z,59.37
2023-02-14T05:01:51.518Z,59.01
2023-02-14T05:04:18.354Z,58.42
2023-02-14T05:06:51.363Z,58.50
2023-02-14T05:09:21.200Z,58.55
2023-02-14T05:11:49.225Z,58.57
2023-02-14T05:14:17.636Z,58.08
2023-02-14T05:16:45.407Z,57.45
2023-02-14T05:19:13.340Z,58.24
2023-02-14T05:21:41.296Z,58.55
2023-02-14T05:24:08.631Z,58.57
2023-02-14T05:26:35.945Z,58.89
2023-02-14T05:29:03.690Z,58.05
2023-02-14T05:31:30.766Z,57.96
2023-02-14T05:33:57.720Z,58.54
2023-02-14T05:36:24.919Z,58.62
2023-02-14T05:38:52.719Z,59.04
2023-02-14T05:41:19.711Z,58.73
2023-02-14T05:43:46.290Z,58.37
2023-02-14T05:46:13.170Z,58.63
2023-02-14T05:48:41.121Z,58.59
2023-02-14T05:51:08.805Z,58.31
2023-02-14T05:53:36.077Z,58.08
2023-02-14T05:56:06.472Z,57.94
2023-02-14T05:58:35.245Z,58.02
2023-02-14T06:01:02.388Z,57.24
2023-02-14T06:03:30.010Z,56.91
2023-02-14T06:05:57.074Z,56.95
2023-02-14T06:08:24.273Z,57.74
2023-02-14T06:10:51.107Z,57.89
2023-02-14T06:13:17.978Z,57.45
2023-02-14T06:15:45.949Z,57.13
2023-02-14T06:18:12.813Z,58.15
2023-02-14T06:20:40.420Z,58.04
2023-02-14T06:23:07.380Z,58.38
2023-02-14T06:25:34.124Z,57.99
2023-02-14T06:28:02.589Z,58.83
2023-02-14T06:30:29.768Z,58.64
2023-02-14T06:32:58.380Z,59.40
2023-02-14T06:35:25.360Z,59.21
2023-02-14T06:37:52.887Z,59.27
2023-02-14T06:40:21.665Z,58.85
2023-02-14T06:42:48.305Z,58.28
2023-02-14T06:45:15.299Z,58.52
2023-02-14T06:47:42.619Z,59.32
2023-02-14T06:50:11.852Z,58.73
2023-02-14T06:52:38.995Z,59.04
2023-02-14T06:55:06.557Z,58.67
2023-02-14T06:57:34.529Z,58.12
2023-02-14T07:00:01.969Z,59.19
2023-02-14T07:02:33.406Z,59.62
2023-02-14T07:05:02.360Z,58.42
2023-02-14T07:07:31.904Z,59.01
2023-02-14T07:09:59.827Z,60.16
2023-02-14T07:12:26.438Z,58.61
2023-02-14T07:14:53.781Z,59.24
2023-02-14T07:17:20.670Z,58.99
2023-02-14T07:19:48.928Z,58.54
2023-02-14T07:22:15.780Z,60.12
2023-02-14T07:24:44.340Z,58.91
2023-02-14T07:27:11.416Z,59.82
2023-02-14T07:29:38.101Z,59.68
2023-02-14T07:32:05.179Z,61.25
2023-02-14T07:34:35.837Z,60.60
2023-02-14T07:37:03.725Z,60.70
2023-02-14T07:39:30.565Z,61.13
2023-02-14T07:41:57.336Z,60.43
2023-02-14T07:44:24.325Z,60.48
2023-02-14T07:46:51.304Z,62.51
2023-02-14T07:49:18.152Z,64.26
2023-02-14T07:51:45.328Z,61.39
2023-02-14T07:54:11.961Z,60.28
2023-02-14T07:56:38.610Z,63.10
2023-02-14T07:59:05.444Z,62.54
2023-02-14T08:01:32.393Z,61.29
2023-02-14T08:03:59.933Z,60.15
2023-02-14T08:06:27.871Z,60.71
2023-02-14T08:08:56.484Z,60.12
2023-02-14T08:11:42.025Z,59.65
2023-02-14T08:14:08.902Z,59.00
2023-02-14T08:16:35.812Z,58.31
2023-02-14T08:19:03.018Z,58.30
2023-02-14T08:21:31.290Z,58.66
2023-02-14T08:23:59.161Z,58.78
2023-02-14T08:26:27.151Z,57.87
2023-02-14T08:28:54.633Z,57.54
2023-02-14T08:31:34.394Z,57.00
2023-02-14T08:34:02.493Z,57.03
2023-02-14T08:36:29.387Z,57.48
2023-02-14T08:38:57.547Z,57.39
2023-02-14T08:41:24.542Z,56.72
2023-02-14T08:43:52.773Z,56.56
2023-02-14T08:46:19.851Z,57.61
2023-02-14T08:48:47.348Z,56.90
2023-02-14T08:51:16.560Z,57.80
2023-02-14T08:53:43.953Z,58.20
2023-02-14T08:56:11.859Z,57.63
2023-02-14T08:58:38.947Z,57.71
2023-02-14T09:01:16.813Z,57.34
2023-02-14T09:03:44.389Z,56.56
2023-02-14T09:06:12.252Z,57.17
2023-02-14T09:08:40.006Z,57.60
2023-02-14T09:11:10.898Z,57.08
2023-02-14T09:13:37.831Z,58.17
2023-02-14T09:16:07.230Z,56.79
2023-02-14T09:18:34.401Z,56.41
2023-02-14T09:21:01.817Z,56.17
2023-02-14T09:23:28.581Z,56.22
2023-02-14T09:26:02.470Z,56.12
2023-02-14T09:28:29.749Z,56.59
2023-02-14T09:30:57.037Z,55.01
2023-02-14T09:33:24.497Z,54.83
2023-02-14T09:35:52.481Z,54.19
2023-02-14T09:38:19.661Z,53.25
2023-02-14T09:40:47.330Z,52.60
2023-02-14T09:43:21.439Z,52.98
2023-02-14T09:45:51.506Z,53.16
2023-02-14T09:48:27.197Z,53.49
2023-02-14T09:51:05.947Z,52.82
2023-02-14T09:53:34.799Z,52.92
2023-02-14T09:56:10.276Z,53.00
2023-02-14T09:58:50.029Z,53.09
2023-02-14T10:01:20.637Z,53.15
2023-02-14T10:04:00.052Z,54.87
2023-02-14T10:06:45.218Z,55.24
2023-02-14T10:09:14.976Z,53.82
2023-02-14T10:11:45.099Z,52.33
2023-02-14T10:14:14.483Z,51.58
2023-02-14T10:16:49.221Z,52.85
2023-02-14T10:19:19.471Z,52.97
2023-02-14T10:21:52.320Z,51.89
2023-02-14T10:24:48.339Z,51.50
2023-02-14T10:27:18.258Z,51.03
2023-02-14T10:29:45.654Z,52.12
2023-02-14T10:32:19.006Z,52.71
2023-02-14T10:34:49.910Z,52.54
2023-02-14T10:37:22.680Z,53.05
2023-02-14T10:39:52.400Z,52.72
2023-02-14T10:42:18.986Z,51.23
2023-02-14T10:44:49.522Z,51.75
2023-02-14T10:47:19.369Z,52.41
2023-02-14T10:49:49.847Z,52.69
2023-02-14T10:52:20.761Z,52.85
2023-02-14T10:54:52.948Z,53.04
2023-02-14T10:57:25.052Z,52.65
2023-02-14T10:59:58.583Z,53.02
2023-02-14T11:02:31.943Z,51.85
2023-02-14T11:04:59.165Z,52.95
2023-02-14T11:07:25.903Z,52.43
2023-02-14T11:09:52.561Z,52.90
2023-02-14T11:12:33.298Z,52.84
2023-02-14T11:15:10.145Z,52.88
2023-02-14T11:17:37.756Z,52.30
2023-02-14T11:20:22.692Z,52.26
2023-02-14T11:22:50.019Z,51.75
2023-02-14T11:25:24.831Z,52.67
2023-02-14T11:27:54.428Z,50.49
2023-02-14T11:30:26.584Z,50.41
2023-02-14T11:33:01.895Z,51.96
2023-02-14T11:35:34.663Z,53.02
2023-02-14T11:38:05.093Z,53.15
2023-02-14T11:40:31.698Z,52.08
2023-02-14T11:43:13.444Z,51.89
2023-02-14T11:45:42.705Z,50.25
2023-02-14T11:48:10.636Z,51.49
2023-02-14T11:50:39.100Z,50.99
2023-02-14T11:53:11.265Z,50.21
2023-02-14T11:55:38.348Z,50.80
2023-02-14T11:58:06.858Z,50.12
2023-02-14T12:00:33.925Z,50.74
2023-02-14T12:03:03.164Z,49.57
2023-02-14T12:05:45.432Z,50.34
2023-02-14T12:08:13.429Z,50.34
2023-02-14T12:10:42.422Z,49.77
2023-02-14T12:13:09.410Z,49.64
2023-02-14T12:15:39.723Z,50.07
2023-02-14T12:18:09.589Z,51.28
2023-02-14T12:20:36.448Z,51.22
2023-02-14T12:23:10.510Z,50.94
2023-02-14T12:25:43.386Z,50.36
2023-02-14T12:28:16.417Z,49.05
2023-02-14T12:30:43.486Z,48.69
2023-02-14T12:33:18.874Z,49.08
2023-02-14T12:35:45.684Z,49.43
2023-02-14T12:38:27.659Z,51.51
2023-02-14T12:41:02.376Z,50.58
2023-02-14T12:43:32.405Z,50.55
2023-02-14T12:46:12.982Z,52.73
2023-02-14T12:48:50.728Z,51.92
2023-02-14T12:51:29.620Z,51.09
2023-02-14T12:53:56.087Z,51.15
2023-02-14T12:56:26.267Z,52.09
2023-02-14T12:58:56.400Z,50.41
2023-02-14T13:01:38.367Z,50.23
2023-02-14T13:04:15.042Z,51.59
2023-02-14T13:06:45.931Z,49.92
2023-02-14T13:09:15.648Z,49.79
2023-02-14T13:11:42.435Z,50.07
2023-02-14T13:14:32.617Z,51.18
2023-02-14T13:17:18.157Z,50.66
2023-02-14T13:19:48.443Z,52.70
2023-02-14T13:22:19.070Z,52.57
2023-02-14T13:24:47.437Z,51.92
2023-02-14T13:27:18.289Z,52.68
2023-02-14T13:29:50.885Z,51.62
2023-02-14T13:32:21.534Z,51.11
2023-02-14T13:34:49.016Z,50.95
2023-02-14T13:37:18.005Z,50.56
2023-02-14T13:39:48.067Z,50.32
2023-02-14T13:42:34.572Z,50.74
2023-02-14T13:45:02.576Z,51.74
2023-02-14T13:47:29.273Z,50.85
2023-02-14T13:49:59.351Z,50.22
2023-02-14T13:52:41.985Z,50.16
2023-02-14T13:55:10.213Z,50.24
2023-02-14T13:57:41.243Z,50.73
2023-02-14T14:00:20.513Z,51.01
2023-02-14T14:02:46.929Z,50.90
2023-02-14T14:05:43.883Z,50.05
2023-02-14T14:08:22.710Z,51.28
2023-02-14T14:10:53.711Z,51.81
2023-02-14T14:13:39.487Z,51.90
2023-02-14T14:16:24.698Z,53.33
2023-02-14T14:18:52.583Z,52.57
2023-02-14T14:21:28.669Z,51.21
2023-02-14T14:24:22.242Z,51.81
2023-02-14T14:26:58.044Z,53.22
2023-02-14T14:29:27.853Z,54.22
2023-02-14T14:31:56.520Z,53.47
2023-02-14T14:34:27.770Z,52.86
2023-02-14T14:37:04.386Z,51.98
2023-02-14T14:39:32.479Z,52.76
2023-02-14T14:42:06.982Z,53.82
2023-02-14T14:44:37.465Z,52.83
2023-02-14T14:47:04.197Z,52.42
2023-02-14T14:49:32.274Z,53.90
2023-02-14T14:51:58.978Z,54.03
2023-02-14T14:54:27.496Z,53.49
2023-02-14T14:57:01.548Z,53.31
2023-02-14T14:59:35.399Z,53.11
2023-02-14T15:02:02.423Z,53.02
2023-02-14T15:04:33.676Z,52.95
2023-02-14T15:07:19.324Z,52.12
2023-02-14T15:09:46.188Z,53.54
2023-02-14T15:12:34.037Z,53.52
2023-02-14T15:15:00.641Z,52.86
2023-02-14T15:17:29.490Z,53.64
2023-02-14T15:20:02.579Z,53.09
2023-02-14T15:22:34.042Z,52.81
2023-02-14T15:25:00.602Z,53.44
2023-02-14T15:27:29.102Z,53.06
2023-02-14T15:30:00.464Z,53.46
2023-02-14T15:32:30.155Z,54.53
2023-02-14T15:34:57.037Z,54.47
2023-02-14T15:37:24.537Z,54.13
2023-02-14T15:39:58.198Z,53.90
2023-02-14T15:42:29.652Z,53.87
2023-02-14T15:45:15.191Z,53.55
2023-02-14T15:47:43.971Z,54.39
2023-02-14T15:50:17.615Z,54.25
2023-02-14T15:52:45.929Z,54.19
2023-02-14T15:55:19.149Z,54.61
2023-02-14T15:57:48.726Z,54.26
2023-02-14T16:00:17.747Z,54.04
2023-02-14T16:02:57.083Z,54.07
2023-02-14T16:05:25.140Z,54.03
2023-02-14T16:08:05.586Z,54.44
2023-02-14T16:10:38.232Z,55.59
2023-02-14T16:13:06.762Z,55.29
2023-02-14T16:15:35.789Z,54.87
2023-02-14T16:18:08.172Z,55.14
2023-02-14T16:20:38.689Z,55.49
2023-02-14T16:23:22.561Z,55.71
2023-02-14T16:25:49.748Z,55.47
2023-02-14T16:28:17.720Z,55.96
2023-02-14T16:31:00.022Z,56.53
2023-02-14T16:33:28.180Z,57.13
2023-02-14T16:36:01.176Z,57.47
2023-02-14T16:38:27.754Z,57.45
2023-02-14T16:40:54.719Z,57.23
2023-02-14T16:43:22.815Z,57.20
2023-02-14T16:45:50.194Z,58.24
2023-02-14T16:48:19.785Z,58.42
2023-02-14T16:50:46.793Z,59.67
2023-02-14T16:53:31.877Z,59.86
2023-02-14T16:55:59.060Z,60.24
2023-02-14T16:58:29.253Z,60.06
2023-02-14T17:00:58.583Z,60.52
2023-02-14T17:03:25.694Z,61.01
2023-02-14T17:05:54.792Z,61.57
2023-02-14T17:08:21.908Z,62.06
2023-02-14T17:10:49.549Z,62.41
2023-02-14T17:13:19.859Z,62.56
2023-02-14T17:15:46.495Z,62.64
2023-02-14T17:18:15.892Z,63.47
2023-02-14T17:20:42.873Z,65.35
2023-02-14T17:23:12.540Z,65.73
2023-02-14T17:25:39.854Z,66.53
2023-02-14T17:28:07.589Z,66.78
2023-02-14T17:30:34.389Z,66.42
2023-02-14T17:33:02.193Z,67.91
2023-02-14T17:35:30.749Z,67.20
2023-02-14T17:37:58.772Z,66.02
2023-02-14T17:40:25.820Z,66.04
2023-02-14T17:42:53.465Z,66.96
2023-02-14T17:45:20.652Z,66.49
2023-02-14T17:47:47.843Z,66.91
2023-02-14T17:50:16.021Z,66.65
2023-02-14T17:52:43.150Z,66.93
2023-02-14T17:55:10.383Z,66.96
2023-02-14T17:57:41.227Z,67.24
2023-02-14T18:00:11.380Z,68.31
2023-02-14T18:02:39.101Z,68.79
2023-02-14T18:05:07.709Z,69.87
2023-02-14T18:07:35.927Z,70.39
2023-02-14T18:10:04.529Z,69.73
2023-02-14T18:12:31.474Z,69.61
2023-02-14T18:15:00.896Z,68.98
2023-02-14T18:17:28.387Z,69.23
2023-02-14T18:19:56.788Z,68.98
2023-02-14T18:22:23.482Z,69.40
2023-02-14T18:24:50.083Z,69.34
2023-02-14T18:27:16.603Z,68.79
2023-02-14T18:29:43.217Z,68.77
2023-02-14T18:32:10.329Z,68.83
2023-02-14T18:34:37.720Z,68.39
2023-02-14T18:37:05.704Z,68.97
2023-02-14T18:39:32.880Z,69.54
2023-02-14T18:42:01.066Z,70.55
2023-02-14T18:44:28.657Z,69.94
2023-02-14T18:46:55.486Z,69.75
2023-02-14T18:49:22.112Z,69.78
2023-02-14T18:51:49.753Z,69.39
2023-02-14T18:54:17.760Z,70.11
2023-02-14T18:56:44.679Z,71.64
2023-02-14T18:59:13.327Z,70.96
2023-02-14T19:01:42.002Z,70.68
2023-02-14T19:04:09.195Z,70.07
2023-02-14T19:06:36.213Z,70.64
2023-02-14T19:09:04.052Z,70.86
2023-02-14T19:11:31.649Z,71.09
2023-02-14T19:14:00.753Z,72.14
2023-02-14T19:16:28.611Z,72.06
2023-02-14T19:18:55.486Z,72.15
2023-02-14T19:21:24.685Z,72.81
2023-02-14T19:23:53.029Z,71.81
2023-02-14T19:26:21.015Z,71.50
2023-02-14T19:28:48.591Z,71.95
2023-02-14T19:31:17.084Z,71.56
2023-02-14T19:33:44.486Z,70.36
2023-02-14T19:36:13.106Z,70.55
2023-02-14T19:38:40.788Z,70.70
2023-02-14T19:41:14.388Z,70.44
2023-02-14T19:43:41.702Z,70.17
2023-02-14T19:46:08.719Z,70.76
2023-02-14T19:48:35.263Z,71.79
2023-02-14T19:51:02.002Z,72.12
2023-02-14T19:53:28.751Z,71.46
2023-02-14T19:55:55.525Z,70.67
2023-02-14T19:58:22.464Z,70.61
2023-02-14T20:01:00.066Z,70.77
2023-02-14T20:03:26.981Z,71.04
2023-02-14T20:05:55.521Z,71.49
2023-02-14T20:08:22.491Z,70.88
2023-02-14T20:10:49.112Z,70.93
2023-02-14T20:13:16.153Z,71.18
2023-02-14T20:15:45.263Z,71.26
2023-02-14T20:18:12.264Z,71.46
2023-02-14T20:20:59.430Z,70.95
2023-02-14T20:23:26.514Z,70.39
2023-02-14T20:25:53.712Z,70.36
2023-02-14T20:28:25.586Z,70.92
2023-02-14T20:30:52.431Z,70.97
2023-02-14T20:33:20.869Z,70.97
2023-02-14T20:36:12.578Z,70.67
2023-02-14T20:38:40.495Z,71.52
2023-02-14T20:41:10.849Z,71.58
2023-02-14T20:43:38.757Z,71.75
2023-02-14T20:46:08.144Z,71.41
2023-02-14T20:48:35.492Z,71.76
2023-02-14T20:51:23.643Z,71.56
2023-02-14T20:53:50.625Z,71.40
2023-02-14T20:56:20.512Z,71.74
2023-02-14T20:58:47.673Z,72.30
2023-02-14T21:01:21.300Z,72.51
2023-02-14T21:03:52.223Z,72.33
2023-02-14T21:06:20.925Z,71.87
2023-02-14T21:08:53.645Z,72.11
2023-02-14T21:11:22.451Z,71.78
2023-02-14T21:13:55.157Z,71.73
2023-02-14T21:16:22.123Z,71.47
2023-02-14T21:18:52.493Z,71.44
2023-02-14T21:21:22.728Z,71.40
2023-02-14T21:23:51.569Z,71.49
2023-02-14T21:26:20.088Z,71.19
2023-02-14T21:28:49.616Z,71.36
2023-02-14T21:31:18.345Z,72.42
2023-02-14T21:33:45.230Z,72.41
2023-02-14T21:36:13.219Z,72.00
2023-02-14T21:38:41.627Z,72.15
2023-02-14T21:41:09.759Z,71.68
2023-02-14T21:43:37.766Z,71.37
2023-02-14T21:46:08.288Z,71.77
2023-02-14T21:48:53.751Z,71.82
2023-02-14T21:51:20.340Z,71.61
2023-02-14T21:53:48.718Z,71.86
2023-02-14T21:56:20.199Z,72.02
2023-02-14T21:58:47.815Z,72.06
2023-02-14T22:01:16.014Z,71.99
2023-02-14T22:03:44.276Z,72.03
2023-02-14T22:06:11.354Z,72.13
2023-02-14T22:08:38.370Z,71.47
2023-02-14T22:11:16.683Z,71.67
2023-02-14T22:13:45.223Z,71.21
2023-02-14T22:16:13.818Z,71.40
2023-02-14T22:18:42.490Z,72.05
2023-02-14T22:21:12.475Z,72.40
2023-02-14T22:23:39.650Z,72.12
2023-02-14T22:26:14.153Z,72.78
2023-02-14T22:28:41.761Z,72.90
2023-02-14T22:31:09.716Z,72.76
2023-02-14T22:33:37.876Z,72.46
2023-02-14T22:36:06.286Z,71.74
2023-02-14T22:38:33.746Z,72.23
2023-02-14T22:41:07.858Z,71.58
2023-02-14T22:43:35.313Z,71.75
2023-02-14T22:46:04.114Z,71.39
2023-02-14T22:48:33.076Z,71.07
2023-02-14T22:51:15.730Z,71.90
2023-02-14T22:53:42.783Z,70.52
2023-02-14T22:56:11.440Z,69.66
2023-02-14T22:58:39.829Z,70.58
2023-02-14T23:01:13.389Z,70.51
2023-02-14T23:03:40.225Z,70.63
2023-02-14T23:06:07.077Z,70.88
2023-02-14T23:08:34.508Z,71.36
2023-02-14T23:11:11.359Z,71.44
2023-02-14T23:13:57.119Z,71.93
2023-02-14T23:16:42.537Z,71.80
2023-02-14T23:19:47.862Z,71.41
2023-02-14T23:22:14.441Z,71.33
2023-02-14T23:24:41.307Z,71.63
2023-02-14T23:27:10.940Z,71.70
2023-02-14T23:29:41.208Z,71.77
2023-02-14T23:32:09.358Z,71.45
2023-02-14T23:34:37.377Z,71.72
2023-02-14T23:37:04.357Z,72.28
2023-02-14T23:39:35.856Z,73.08
2023-02-14T23:42:04.743Z,73.19
2023-02-14T23:44:34.264Z,73.12
2023-02-14T23:47:03.369Z,73.04
2023-02-14T23:49:30.815Z,72.67
2023-02-14T23:51:57.810Z,73.61
2023-02-14T23:54:25.341Z,75.25
2023-02-14T23:56:55.136Z,73.50
2023-02-14T23:59:22.170Z,73.51
